Vicente Ramírez

Recruteur - Gijón
2 Sept 2027
Jeudi
Processus

Personnalité

Adaptabilité (4) Ambition (9) Controverse (9) Loyauté (8) Pression (19) Professionnalisme (19) Sportivité (17) Tempérament (9)

Profil

Style d'entraînement Démocratique
Diplôme Continental B
Détermination 4
Gestion des joueurs 9
Motivation 12
Discipline 12
Satisfaction professionnelle
100%
Fatigue
0%
Rôle Recruteur
Salaire 33.6K p/s
Contrat 14.03.2030

Performance

Comportement Bon
Efficacité de l'entraînement
58%
Développement des joueurs
30%
Prévention des blessures
45%
Mise en place tactique
65%

Événements récents

A participé à une réunion de recrutement 14j
A participé à une réunion de recrutement 21j
A participé à une réunion de recrutement 28j
A participé à une réunion de recrutement 35j
A participé à une réunion de recrutement 42j
A participé à une réunion de recrutement 42j
A participé à une réunion de recrutement 49j
A participé à une réunion de recrutement 49j

Suivi en cours

110
Joueur Club Statut Capacité Confiance Observé Dernière observation Dernier vote
Ramiro Buratti River Plate Perdu 87 / 102 40% 1 14.06.2027 -
David Larrubia Málaga Actif 138 / 133 40% 3 30.05.2027 -
Caleb Yirenkyi Coventry City Actif 140 / 138 40% 3 28.05.2027 -
Yusi Alavés Actif 117 / 133 40% 3 26.05.2027 -
Adrián Niño Málaga Actif 126 / 125 40% 3 26.05.2027 -
Endrick Real Madrid Actif 156 / 153 40% 2 26.05.2027 -
Urko Izeta Cádiz Actif 119 / 131 40% 1 26.05.2027 -
Kevin Vazquez Cruz Azul Actif 156 / 140 40% 5 23.05.2027 -
Andrés Martín Racing Santander Actif 126 / 131 40% 3 23.05.2027 -
Lander Astiazarán Real Sociedad Actif 109 / 109 67% 10 22.05.2027 -
Jesús Rodríguez Como Actif 144 / 145 40% 1 22.05.2027 -
Jan Virgili Club Brugge Actif 120 / 135 40% 4 20.05.2027 -
Yussif Saidu Zaragoza Actif 118 / 130 40% 1 20.05.2027 -
Iker Benito Queretaro Actif 109 / 125 40% 1 19.05.2027 -
Rodrigo Mora AS Roma Actif 141 / 144 40% 2 17.05.2027 -
Senny Mayulu Paris Saint-Germain Actif 144 / 150 40% 1 16.05.2027 -
Samir El Mourabet RC Strasbourg Actif 116 / 126 40% 1 14.05.2027 -
Ethan Williams Peterborough United Actif 105 / 119 40% 4 13.05.2027 -
Jonathan Dubasin Osasuna Actif 149 / 145 40% 1 13.05.2027 -
Matt O'Riley Brighton Actif 141 / 149 40% 1 13.05.2027 -
Shea Lacey Wolverhampton Actif 110 / 124 40% 1 11.05.2027 -
Joel McGregor Swindon Town Actif 92 / 99 40% 2 10.05.2027 -
Jon Garro Real Sociedad Actif 101 / 96 40% 2 10.05.2027 -
Izan Merino Málaga Actif 121 / 126 40% 2 10.05.2027 -
Cyriaque Irié VfL Wolfsburg Actif 121 / 123 40% 2 08.05.2027 -
Christ Inao Oulaï Fiorentina Actif 144 / 141 40% 1 07.05.2027 -
Warren Zaïre-Emery Paris Saint-Germain Actif 163 / 161 40% 5 06.05.2027 -
Jofre Torrents Ajax Actif 126 / 127 40% 3 06.05.2027 -
Ali Ahmed Norwich City Actif 121 / 126 40% 1 05.05.2027 -
Othmane Maamma Watford Actif 116 / 132 40% 5 02.05.2027 -
Matías Gómez Granada Actif 117 / 120 40% 2 02.05.2027 -
Diego Lainez Tigres Actif 116 / 131 40% 3 01.05.2027 -
Marcel Ruiz RC Lens Actif 143 / 142 40% 2 01.05.2027 -
Monty Batlhabane Polokwane City Actif 95 / 95 40% 1 27.04.2027 -
Aimar Osasuna Actif 144 / 147 40% 1 27.04.2027 -
Tani Oluwaseyi Villarreal Actif 143 / 142 40% 2 22.04.2027 -
Lucas Høgsberg RC Strasbourg Actif 145 / 144 40% 1 20.04.2027 -
Josh King Chelsea Actif 149 / 146 40% 1 19.04.2027 -
David Ozoh Derby County Actif 123 / 124 40% 1 16.04.2027 -
Oscar Schwartau Norwich City Actif 123 / 126 40% 1 15.04.2027 -
Finn Azaz Southampton Actif 136 / 130 40% 1 14.04.2027 -
Thulani Dala Platinum Stars Actif 83 / 98 40% 2 11.04.2027 -
Hugo Álvarez Celta Actif 157 / 141 40% 1 09.04.2027 -
Bernardes Benfica Actif 86 / 102 40% 1 06.04.2027 -
André Miranda Porto Actif 102 / 105 40% 1 05.04.2027 -
Jayden Luker Barnet Actif 106 / 100 40% 1 04.04.2027 -
Riley Owen Trento Actif 104 / 108 40% 1 04.04.2027 -
Erick Sánchez OGC Nice Actif 132 / 137 40% 2 01.04.2027 -
Pol Lozano Espanyol Actif 131 / 140 40% 1 01.04.2027 -
Ryan Sessegnon Fulham Actif 158 / 143 40% 2 30.03.2027 -
Emi Rodriguez Leon Actif 134 / 117 40% 1 30.03.2027 -
Louis Leroux FC Nantes Actif 114 / 129 40% 1 26.03.2027 -
Olívio Tomé Benfica Actif 115 / 111 40% 1 26.03.2027 -
Javi Martínez Eibar Actif 131 / 127 40% 1 26.03.2027 -
Carlos Vicente Birmingham Actif 136 / 138 40% 1 25.03.2027 -
Jayden Addai Como Actif 142 / 135 40% 1 22.03.2027 -
Ozziel Herrera Tigres Actif 142 / 131 40% 1 21.03.2027 -
Mfundo Vilakazi Kaizer Chiefs Actif 92 / 117 40% 2 20.03.2027 -
Kevin Fulham Actif 154 / 152 40% 1 18.03.2027 -
Jan Bürger Gillingham Actif 115 / 116 40% 1 17.03.2027 -
Christos Mouzakitis Hull City Actif 121 / 140 40% 2 16.03.2027 -
Matvey Kislyak CSKA Moscow Actif 123 / 141 40% 1 15.03.2027 -
Khalis Merah Toulouse FC Actif 108 / 133 40% 1 14.03.2027 -
Martim Cunha Porto Actif 106 / 110 40% 1 12.03.2027 -
Davide Bartesaghi AC Milan Actif 134 / 134 40% 1 11.03.2027 -
Daniel Vernattus Metalist Actif 81 / 95 40% 1 11.03.2027 -
Duk Atlas Actif 106 / 109 40% 1 09.03.2027 -
Ernie Weaver AFC Wimbledon Actif 114 / 118 40% 1 08.03.2027 -
Percy Jali Free State Stars Actif 92 / 96 40% 1 08.03.2027 -
Marquinhos Spartak Moscow Actif 134 / 128 40% 1 03.03.2027 -
Daniel Arcila Leon Actif 108 / 112 40% 1 03.03.2027 -
Félix Lemaréchal Club Brugge Actif 128 / 136 40% 1 02.03.2027 -
Isaiah Jones Luton Town Actif 124 / 121 40% 1 02.03.2027 -
Tshepang Moremi Orlando Pirates Actif 130 / 109 40% 1 01.03.2027 -
Tyrhys Dolan Espanyol Actif 134 / 141 40% 1 01.03.2027 -
Jonás Luna Santa Clara Actif 119 / 126 40% 2 28.02.2027 -
James Dornelly Peterborough United Actif 91 / 112 40% 1 23.02.2027 -
Pablo García Racing Santander Actif 131 / 130 40% 1 23.02.2027 -
David Mella Deportivo La Coruña Actif 134 / 129 40% 1 14.02.2027 -
Kauã Elias Anderlecht Actif 124 / 135 40% 1 09.02.2027 -
Gift Hlatshwayo Free State Stars Perdu 100 / 105 40% 1 12.01.2027 -
Didier Mercier Chamois Niortais Actif 104 / 120 40% 1 12.01.2027 -
Malick Fofana Sunderland Actif 142 / 146 40% 1 31.12.2026 -
Juanlu Bournemouth Actif 142 / 149 40% 1 23.12.2026 -
Christian Krasnodar Actif 116 / 135 40% 1 21.12.2026 -
Adam Wharton Crystal Palace Actif 154 / 156 40% 1 20.12.2026 -
Joaquim Tigres Actif 149 / 123 40% 2 19.12.2026 -
Ousmane Diomande Nottingham Forest Actif 160 / 152 40% 1 19.12.2026 -
Santiago Simón Toluca Actif 114 / 123 40% 1 16.12.2026 -
Tyler Adams Bournemouth Actif 156 / 148 40% 1 10.12.2026 -
Omar El Hilali Espanyol Actif 153 / 151 40% 1 09.12.2026 -
Facundo Miño Deportivo Riestra Actif 108 / 117 40% 1 09.12.2026 -
Diego Campillo Guadalajara Actif 110 / 124 40% 1 07.12.2026 -
Richard Ledezma Guadalajara Actif 143 / 140 40% 2 06.12.2026 -
Pedro Vite Pumas UNAM Actif 131 / 125 40% 3 03.12.2026 -
Noah Sadiki Sunderland Actif 150 / 147 40% 1 02.12.2026 -
José Castillo Guadalajara Actif 108 / 124 40% 1 02.12.2026 -
Alex Vigo Independiente Rivadavia Actif 108 / 115 40% 1 01.12.2026 -
Aarón Mejía Tijuana Actif 121 / 124 40% 1 01.12.2026 -
Joaquín García Vélez Actif 120 / 122 40% 1 28.11.2026 -
Fran Beltrán Girona Actif 137 / 143 40% 1 28.11.2026 -
Omar Campos Cruz Azul Actif 105 / 127 40% 1 17.11.2026 -
Víctor Guzmán Monterrey Actif 140 / 133 40% 1 05.11.2026 -
Ramón Juárez Club America Actif 154 / 129 40% 1 05.11.2026 -
Nazareno Colombo Racing Club Actif 131 / 122 40% 1 04.11.2026 -
James Cardona La Equidad Actif 145 / 138 40% 1 04.11.2026 -
Pedro Porro Tottenham Actif 147 / 147 40% 1 02.11.2026 -
Ramiro Hernandes Belgrano Actif 129 / 129 40% 1 25.10.2026 -
Marcos Cuenca Zaragoza Actif 116 / 109 44% 1 10.08.2026 -
Yann Bodiger Ceuta Actif 106 / 112 44% 1 03.08.2026 -